Weather observations for the past three days for
Rogers - Rogers Executive Airport - Carter Field
Metric (Imperial)
Date Time (cdt) Wind (kph) Vis. (km) Weather Sky Cond. Temperature (ºC) Relative Humidity Wind Chill (°C) Heat Index (°C) Pressure Precipitation (cm)
Air Dwpt 6 hour altimeter (cm) sea level (mb) 1 hr 3 hr 6 hr
Max. Min.
10 13:58 N 13 16.09 Overcast BKN075 OVC090 20 13.9 68% 76.48 1018.5
10 12:58 Vrbl 11 16.09 A Few Clouds FEW075 20 13.9 21.1 15.6 68% 76.45 1018.4
10 11:58 N 15 16.09 Partly Cloudy SCT060 20.6 14.4 68% 76.4 1017.8
10 10:58 N 11 16.09 Fair CLR 20.6 15.6 73% 76.35 1016.9
10 09:58 N 11 16.09 Fair CLR 19.4 15 76% 76.3 1016.3
10 08:58 NW 6 16.09 Fair CLR 19.4 15 76% 76.35 1016.8
10 07:58 NE 7 16.09 Fair CLR 17.2 14.4 84% 76.25 1015.5
10 06:58 Calm 16.09 Fair CLR 15.6 13.3 17.8 13.9 86% 76.17 1014.4
10 05:58 NE 7 16.09 Fair CLR 14.4 12.8 90% 76.17 1014.3
10 04:58 NW 6 16.09 Partly Cloudy SCT110 16.1 13.3 84% 76.12 1013.7
10 03:58 S 13 16.09 Overcast OVC120 17.2 12.8 76% 76.05 1012.5
10 02:58 SE 6 14.48 Fair CLR 16.7 12.2 75% 76.05 1012.5
10 01:58 S 7 16.09 Fair CLR 17.2 12.2 73% 76.07 1012.7
10 00:58 SE 6 16.09 A Few Clouds FEW120 17.2 13.3 25.6 15.6 78% 76.1 1013.4
09 23:58 Calm 16.09 Fair CLR 16.1 12.2 78% 76.07 1013.0
09 22:58 Calm 16.09 Fair CLR 16.1 12.2 78% 76.07 1013.0
09 21:58 SE 11 16.09 Fair CLR 18.9 11.7 63% 75.97 1011.7
09 20:58 Calm 16.09 Fair CLR 19.4 11.7 61% 75.9 1010.7
09 19:58 SE 6 16.09 Fair CLR 23.3 10 43% 75.82 1009.8
09 18:58 SE 11 16.09 Fair CLR 25.6 8.9 27.8 25 35% 26 75.82 1009.8
09 17:58 S 7 16.09 Fair CLR 26.1 7.8 31% 26 75.82 1009.9
09 16:58 E 6 16.09 Fair CLR 26.7 7.2 29% 26 75.82 1009.8
09 15:58 Calm 16.09 Fair CLR 26.1 6.1 28% 26 75.87 1010.4
09 14:58 NE 11 16.09 Fair CLR 27.2 8.3 30% 27 75.9 1010.7
09 13:58 Vrbl 6 16.09 Fair CLR 26.7 8.9 33% 26 75.92 1011.1
09 12:58 Calm 16.09 Fair CLR 25 6.7 26.1 12.2 31% 25 75.95 1011.4
09 11:58 SE 7 16.09 Fair CLR 24.4 12.2 47% 26 75.95 1011.5
09 10:58 Calm 16.09 Fair CLR 22.2 13.3 57% 75.97 1011.8
09 09:58 S 7 16.09 Fair CLR 20.6 15 70% 75.97 1011.6
09 08:58 W 6 16.09 Fair CLR 18.3 13.9 76% 75.95 1011.5
09 07:58 SE 6 16.09 Fair CLR 14.4 12.8 90% 75.92 1011.2
09 06:58 S 6 16.09 Fair CLR 11.7 11.1 14.4 10 96% 75.87 1010.7
09 05:58 Calm 16.09 Fair CLR 10.6 10 96% 75.84 1010.2
09 04:58 Calm 16.09 Fair CLR 11.1 10.6 97% 75.82 1010.0
09 03:58 SW 6 16.09 Fair CLR 12.2 11.1 93% 75.84 1010.2
09 02:58 SW 7 16.09 Fair CLR 13.9 11.7 87% 75.87 1010.5
09 01:58 W 9 16.09 Fair CLR 13.9 11.7 87% 75.87 1010.4
09 00:58 W 7 16.09 Fair CLR 13.3 11.7 21.7 13.3 90% 75.9 1010.9 0.08
08 23:58 SW 6 16.09 Fair CLR 15 12.2 83% 75.92 1011.1
08 22:58 NW 11 16.09 Fair CLR 15.6 12.2 80% 75.87 1010.5
08 21:58 S 24 16.09 Fair CLR 17.2 11.1 68% 75.72 1008.6 0.08
08 19:58 SW 33 G 52 16.09 Light Rain and Breezy OVC085 19.4 11.7 61% 75.72 1008.4 0.05
08 18:58 SW 7 16.09 Partly Cloudy SCT120 21.7 11.7 25.6 21.7 53% 75.72 1008.6
08 17:58 W 13 16.09 Mostly Cloudy BKN100 23.9 10.6 43% 25 75.72 1008.5
08 16:58 W 19 16.09 Fair CLR 25 10.6 40% 26 75.69 1008.2
08 15:58 SW 19 16.09 Fair CLR 25 10.6 40% 26 75.72 1008.6
08 14:58 SW 15 G 28 16.09 Fair CLR 25 9.4 37% 26 75.79 1009.4
08 13:58 S 20 G 31 14.48 Fair CLR 23.9 7.8 36% 25 75.84 1010.2
08 12:58 SW 22 G 33 16.09 Fair CLR 22.8 8.9 22.8 10 41% 75.92 1011.3
08 11:58 SW 22 16.09 Fair CLR 21.7 10 47% 76 1012.4
08 10:58 SW 26 G 33 16.09 Fair CLR 20.6 10 51% 76.07 1013.3
08 09:58 SW 15 16.09 Fair CLR 18.9 11.1 61% 76.12 1013.9
08 08:58 S 24 G 33 16.09 Fair CLR 16.7 10.6 67% 76.12 1014.1
08 07:58 S 15 16.09 Fair CLR 13.9 9.4 74% 76.12 1014.3
08 06:58 S 9 16.09 Fair CLR 10 6.7 11.1 8.9 80% 9 76.12 1014.4
08 05:58 S 9 16.09 Fair CLR 8.9 6.1 83% 8 76.1 1013.9
08 04:58 SE 11 16.09 Fair CLR 9.4 6.7 83% 8 76.05 1013.4
08 03:58 S 9 16.09 Fair CLR 10 6.7 80% 9 76.05 1013.4
08 02:58 S 11 16.09 Fair CLR 10 6.7 80% 9 76.1 1014.0
08 01:58 S 13 14.48 Fair CLR 10.6 7.2 80% 76.12 1014.3
08 00:58 SE 11 1.21 Fair with Haze CLR 11.1 7.2 16.7 11.1 77% 76.17 1014.9
07 23:58 S 9 16.09 Fair CLR 12.2 6.7 69% 76.17 1015.1
07 22:58 S 11 16.09 Fair CLR 12.2 6.7 69% 76.23 1015.6
07 21:58 SW 6 16.09 Fair CLR 15 6.1 56% 76.2 1015.4
07 20:58 SW 6 16.09 Fair CLR 15 6.7 58% 76.17 1015.0
07 19:58 SW 11 16.09 Fair CLR 17.2 6.1 48% 76.12 1014.3
07 18:58 W 13 16.09 Fair CLR 18.9 5.6 20 17.2 42% 76.12 1014.5
07 17:58 Vrbl 7 16.09 Fair CLR 18.9 5 40% 76.15 1014.7
07 16:58 W 9 16.09 Fair CLR 19.4 6.1 42% 76.17 1015.2
07 15:58 SW 19 G 30 16.09 Fair CLR 18.9 5.6 42% 76.23 1015.7
07 14:58 W 9 16.09 A Few Clouds FEW060 18.3 4.4 40% 76.28 1016.4
Date Time (cdt) Wind (kph) Vis. (km) Weather Sky Cond. Air Dwpt Max. Min. Relative Humidity Wind Chill (°C) Heat Index (°C) altimeter (cm) sea level (mb) 1 hr 3 hr 6 hr
6 hour
Temperature (ºC) Pressure Precipitation (cm)